Flugplatz Stuttgart

Bericht für EDDS

vom 12.08. um 00:20 UTC

Wind 5 kt aus 110°

Sichtweite 10 km oder mehr

gute Sicht, keine Wolken < 5000 ft, keine CB, keine Wettererscheinungen (CAVOK)

Temperatur 21.0°C

Taupunkt 16.0°C

Luftfeuchtigkeit 73%

Luftdruck 1017 hPa

EDDS 120020Z 11005KT 070V200 CAVOK 21/16 Q1017

Prognose für EDDS

vom 11.08. um 23:00 UTC

Zwischen 00:00 UTC und 08:00 UTC

variable Windrichtung mit 3 kt

Sichtweite 10 km oder mehr

keine signifikanten Wettererscheinungen

keine Wolken


Zwischen 08:00 und 10:00 UTC übergehend zu

Wind 5 kt aus 80°

Sichtweite 10 km oder mehr

keine signifikanten Wettererscheinungen

keine Wolken


Zwischen 12:00 UTC und 18:00 UTC zeitweise mit einer Wahrscheinlichkeit von 30%

Wind 20 kt aus 220° in Böen 35 kt

Code: TSRA

aufgelockert bewölkt in 6000 ft


Zwischen 18:00 und 20:00 UTC übergehend zu

variable Windrichtung mit 3 kt

Sichtweite 10 km oder mehr

keine signifikanten Wettererscheinungen

keine Wolken

TAF EDDS 112300Z 1200/1224 VRB03KT CAVOK BECMG 1208/1210 08005KT PROB30 TEMPO 1212/1218 22020G35KT TSRA SCT060CB BECMG 1218/1220 VRB03KT
Impressum